Visconde do Rio Branco, Brazil
Current Conditions -  °F | °C
As of 7:00 AM on Saturday 25 Oct 2014 (Local Time) from SBBQ Reporting Station
Haze Haze  
Wind Chill: 59°   Ceiling: Unl
Heat Index: 59°   Visibility: 3mi
Dew Point: 57°   Wind: 3mph
Humidity: 94%   Direction: 100°E
Pressure: 30.09"   Gusts: NA
Location:  21.03°S, 42.84°W
Report Text: SBBQ 250900Z 10003KT 5000 BR FEW007 SCT054 15/14 Q1019
Loading
Personal Weather Stations






























Interactive Weather Map
Tropical Storm Tracking
New forecast layout! Learn more

10-Day Weather Forecast

Advertisements
Track Severe Weather on mobile